Time;durP1;ratioP1;P1;durP2;ratioP2;P2;SDS_P1;SDS_P2;PMS_P1;PMS_P2;Temp;Humidity;BMP_temperature;BMP_pressure;BME280_temperature;BME280_humidity;BME280_pressure;Samples;Min_cycle;Max_cycle;Signal;HPM_P1;HPM_P2
2021/06/21 00:04:13;;;;;;;;;;;21.00;99.90;;;19.93;81.97;94908.63;10453397;28;2089;-77
2021/06/21 00:09:16;;;;;;;;;;;21.00;99.90;;;20.00;81.47;94923.59;10439518;28;2104;-76
2021/06/21 00:14:19;;;;;;;;;;;21.00;99.90;;;20.51;78.67;94918.91;10440944;28;2092;-77
2021/06/21 00:19:22;;;;;;;;;;;21.20;99.90;;;20.45;77.41;94931.28;10431052;28;2139;-77
2021/06/21 00:24:24;;;;;;;;;;;21.30;99.90;;;20.63;75.17;94945.31;10459024;28;1984;-76
2021/06/21 00:29:27;;;;;;;;;;;21.50;99.90;;;20.89;73.48;94950.94;10459768;28;2078;-78
2021/06/21 00:34:30;;;;;;;;;;;21.70;99.90;;;20.70;72.83;94940.00;10443691;28;2152;-78
2021/06/21 00:39:32;;;;;;;;;;;21.70;99.90;;;20.46;74.30;94914.53;10448394;28;2108;-77
2021/06/21 00:44:35;;;;;;;;;;;21.60;99.90;;;20.72;74.59;94916.63;10459114;28;2036;-77
2021/06/21 00:49:38;;;;;;;;;;;21.60;99.90;;;20.44;77.63;94916.00;10461416;28;2222;-78
2021/06/21 00:54:41;;;;;;;;;;;21.50;99.90;;;20.46;78.70;94898.16;10444920;28;2199;-77
2021/06/21 00:59:43;;;;;;;;;;;21.50;99.90;;;20.59;78.84;94884.38;10427604;28;2080;-75
2021/06/21 01:04:46;;;;;;;;;;;21.40;99.90;;;20.56;79.43;94880.44;10452345;28;2089;-78
2021/06/21 01:09:49;;;;;;;;;;;21.50;99.90;;;20.66;79.36;94909.09;10439360;28;2296;-76
2021/06/21 01:14:52;;;;;;;;;;;21.50;99.90;;;19.94;83.24;94898.53;10445471;28;2215;-77
2021/06/21 01:19:55;;;;;;;;;;;21.20;99.90;;;19.91;83.49;94889.13;10440616;28;2069;-78
2021/06/21 01:24:57;;;;;;;;;;;21.00;99.90;;;20.03;81.75;94871.81;10442058;28;2127;-76
2021/06/21 01:30:01;;;;;;;;;;;21.00;99.90;;;19.75;82.07;94869.25;10447795;28;2123;-78
2021/06/21 01:35:04;;;;;;;;;;;20.90;99.90;;;19.61;82.00;94860.75;10436352;28;2166;-77
2021/06/21 01:40:07;;;;;;;;;;;20.70;99.90;;;19.66;81.98;94885.00;10427991;28;2101;-79
2021/06/21 01:45:10;;;;;;;;;;;20.60;99.90;;;19.71;80.91;94928.34;10429342;28;2038;-78
2021/06/21 01:50:12;;;;;;;;;;;20.60;99.90;;;19.83;80.49;94938.38;10450024;28;2185;-77
2021/06/21 01:55:15;;;;;;;;;;;20.60;99.90;;;19.78;81.35;94939.44;10448675;28;2221;-77
2021/06/21 02:00:18;;;;;;;;;;;20.70;99.90;;;19.68;82.14;94913.50;10434687;28;2114;-77
2021/06/21 02:05:21;;;;;;;;;;;20.60;99.90;;;20.01;80.92;94934.13;10433270;28;2126;-78
2021/06/21 02:10:24;;;;;;;;;;;20.70;99.90;;;20.42;79.26;94932.75;10427742;28;2099;-76
2021/06/21 02:15:27;;;;;;;;;;;21.00;99.90;;;20.31;79.03;94928.19;10446034;28;2144;-78
2021/06/21 02:20:29;;;;;;;;;;;21.10;99.90;;;20.23;79.24;94929.94;10443483;28;2155;-78
2021/06/21 02:25:32;;;;;;;;;;;21.90;99.90;;;20.08;79.15;94931.56;10444047;28;2077;-78
2021/06/21 02:30:35;;;;;;;;;;;21.00;99.90;;;20.19;78.77;94938.06;10427563;28;2108;-77
2021/06/21 02:35:38;;;;;;;;;;;21.00;99.90;;;20.22;78.04;94931.09;10427542;28;2127;-76
2021/06/21 02:40:40;;;;;;;;;;;21.10;99.90;;;20.29;78.18;94931.25;10445798;28;2137;-78
2021/06/21 02:45:43;;;;;;;;;;;21.00;99.90;;;20.14;78.20;94938.34;10419874;28;2052;-77
2021/06/21 02:50:48;;;;;;;;;;;21.00;99.90;;;20.25;78.28;94944.06;10439975;28;2103;-77
2021/06/21 02:55:50;;;;;;;;;;;21.00;99.90;;;20.19;77.53;94949.00;10437041;28;2179;-78
2021/06/21 03:00:53;;;;;;;;;;;21.10;99.90;;;20.21;77.64;94963.06;10433498;28;2208;-77
2021/06/21 03:05:56;;;;;;;;;;;21.10;99.90;;;20.13;78.00;94958.59;10431854;28;2108;-77
2021/06/21 03:10:59;;;;;;;;;;;21.00;99.90;;;20.14;77.59;94975.75;10450186;28;2228;-76
2021/06/21 03:16:01;;;;;;;;;;;21.10;99.90;;;20.16;77.60;94971.50;10436256;28;2066;-77
2021/06/21 03:21:04;;;;;;;;;;;21.00;99.90;;;20.11;77.43;94988.19;10436533;28;2045;-78
2021/06/21 03:26:07;;;;;;;;;;;21.00;99.90;;;19.90;78.48;95002.06;10448567;28;2077;-78
2021/06/21 03:31:10;;;;;;;;;;;20.90;99.90;;;20.20;77.63;95018.00;10436822;28;2206;-77
2021/06/21 03:36:12;;;;;;;;;;;20.90;99.90;;;20.06;76.38;95020.38;10447930;28;2185;-77
2021/06/21 03:41:15;;;;;;;;;;;21.00;99.90;;;20.21;76.14;95012.19;10448146;28;2164;-77
2021/06/21 03:46:18;;;;;;;;;;;21.00;99.90;;;20.22;75.49;95032.06;10431754;28;2079;-77
2021/06/21 03:51:21;;;;;;;;;;;21.00;99.90;;;20.58;73.85;95047.41;10454719;28;2157;-76
2021/06/21 03:56:24;;;;;;;;;;;21.10;99.90;;;20.67;72.99;95050.72;10446706;28;2107;-77
2021/06/21 04:01:27;;;;;;;;;;;21.30;99.90;;;20.95;70.54;95053.31;10453292;28;2109;-77
2021/06/21 04:06:30;;;;;;;;;;;21.50;99.90;;;21.15;69.37;95039.66;10451450;28;2104;-77
2021/06/21 04:11:32;;;;;;;;;;;21.70;99.90;;;21.14;68.69;95049.81;10451515;28;2139;-77
2021/06/21 04:16:35;;;;;;;;;;;21.80;99.90;;;21.19;67.83;95062.41;10454200;28;2114;-77
2021/06/21 04:21:38;;;;;;;;;;;21.90;99.90;;;21.77;66.15;95082.34;10426710;28;2042;-76
2021/06/21 04:26:40;;;;;;;;;;;22.10;99.90;;;22.01;64.57;95078.50;10443862;28;2213;-77
2021/06/21 04:31:43;;;;;;;;;;;22.50;99.90;;;22.16;63.39;95076.03;10442744;28;2112;-77
2021/06/21 04:36:46;;;;;;;;;;;22.80;99.90;;;22.33;62.30;95087.31;10461174;28;2164;-77
2021/06/21 04:41:49;;;;;;;;;;;22.90;99.90;;;22.39;61.35;95082.28;10459010;28;2049;-76
2021/06/21 04:46:52;;;;;;;;;;;23.20;99.90;;;22.37;61.80;95101.03;10452946;28;2139;-75
2021/06/21 04:51:54;;;;;;;;;;;23.10;99.90;;;22.38;61.36;95088.94;10429422;28;2074;-76
2021/06/21 04:56:57;;;;;;;;;;;23.20;99.90;;;22.35;60.98;95087.72;10449703;28;2069;-77
2021/06/21 05:02:00;;;;;;;;;;;23.20;99.90;;;22.07;61.35;95077.03;10447134;28;2089;-77
2021/06/21 05:07:02;;;;;;;;;;;23.00;99.90;;;22.71;59.74;95073.78;10426712;28;2098;-78
2021/06/21 05:12:05;;;;;;;;;;;23.20;99.90;;;22.93;58.89;95073.00;10431005;28;2076;-77
2021/06/21 05:17:08;;;;;;;;;;;23.50;99.90;;;22.95;58.37;95097.28;10451618;28;2066;-77
2021/06/21 05:22:17;;;;;;;;;;;23.70;99.90;;;22.87;58.02;95085.44;10451256;28;2076;-79
2021/06/21 05:27:19;;;;;;;;;;;23.70;99.40;;;22.59;58.86;95102.22;10433537;28;2043;-77
2021/06/21 05:32:22;;;;;;;;;;;23.50;99.50;;;22.34;59.15;95107.25;10428600;28;2110;-78
2021/06/21 05:37:25;;;;;;;;;;;23.30;99.70;;;22.34;59.42;95088.88;10445121;28;2166;-77
2021/06/21 05:42:27;;;;;;;;;;;23.20;99.90;;;23.11;56.19;95082.28;10436110;28;2204;-76
2021/06/21 05:47:30;;;;;;;;;;;23.50;98.60;;;23.51;54.60;95091.00;10444317;28;2301;-77
2021/06/21 05:52:33;;;;;;;;;;;23.90;96.80;;;23.82;53.25;95078.88;10451476;28;2253;-77
2021/06/21 05:57:35;;;;;;;;;;;24.30;95.10;;;24.04;51.82;95085.38;10428562;28;2258;-78
2021/06/21 06:02:38;;;;;;;;;;;24.60;93.60;;;23.96;51.73;95079.81;10443715;28;2236;-79
2021/06/21 06:07:41;;;;;;;;;;;24.70;92.20;;;24.33;50.15;95075.47;10432143;28;2333;-77
2021/06/21 06:12:43;;;;;;;;;;;24.70;91.20;;;25.22;47.94;95070.66;10457805;28;2146;-80
2021/06/21 06:17:46;;;;;;;;;;;25.10;90.50;;;25.72;45.23;95059.88;10453960;28;2311;-79
2021/06/21 06:22:49;;;;;;;;;;;25.80;87.10;;;25.64;45.42;95067.34;10444605;28;2161;-79
2021/06/21 06:27:52;;;;;;;;;;;26.20;85.20;;;25.13;47.09;95079.28;10427323;28;2209;-79
2021/06/21 06:32:55;;;;;;;;;;;25.90;84.90;;;25.46;45.99;95081.03;10440654;28;2237;-78
2021/06/21 06:37:57;;;;;;;;;;;26.00;85.20;;;25.35;46.94;95091.16;10439554;28;2205;-78
2021/06/21 06:43:00;;;;;;;;;;;26.10;84.90;;;25.36;46.53;95084.50;10441307;28;2186;-78
2021/06/21 06:48:03;;;;;;;;;;;26.10;84.70;;;25.42;45.28;95079.41;10419977;28;2272;-77
2021/06/21 06:53:06;;;;;;;;;;;26.10;83.20;;;25.49;44.05;95082.19;10413701;28;2217;-78
2021/06/21 06:58:09;;;;;;;;;;;26.00;82.30;;;25.73;44.35;95078.00;10454097;28;2129;-79
2021/06/21 07:03:11;;;;;;;;;;;26.10;82.50;;;26.01;43.53;95072.56;10440331;28;2205;-78
2021/06/21 07:08:14;;;;;;;;;;;26.40;81.60;;;26.04;42.70;95062.75;10456513;28;2189;-78
2021/06/21 07:13:17;;;;;;;;;;;26.40;80.40;;;26.00;42.39;95068.25;10459875;28;2095;-79
2021/06/21 07:18:19;;;;;;;;;;;26.50;78.70;;;25.71;41.36;95086.63;10491514;28;2113;-78
2021/06/21 07:23:22;;;;;;;;;;;26.20;78.10;;;25.32;41.95;95081.75;10470742;28;2085;-79
2021/06/21 07:28:25;;;;;;;;;;;26.20;77.20;;;25.13;42.65;95071.03;10462853;28;2132;-79
2021/06/21 07:33:28;;;;;;;;;;;25.80;77.70;;;25.58;42.84;95077.16;10460411;28;2084;-79
2021/06/21 07:38:30;;;;;;;;;;;25.90;78.50;;;26.01;41.22;95071.78;10471591;28;2122;-80
2021/06/21 07:43:33;;;;;;;;;;;26.20;78.20;;;25.92;40.35;95065.88;10475622;28;1951;-80
2021/06/21 07:48:37;;;;;;;;;;;26.50;76.10;;;25.92;38.71;95057.63;10462205;28;2052;-80
2021/06/21 07:53:40;;;;;;;;;;;26.60;73.90;;;25.19;41.26;95047.47;10453605;28;2014;-79
2021/06/21 07:58:43;;;;;;;;;;;26.20;74.50;;;25.65;39.98;95055.16;10473749;28;2232;-80
2021/06/21 08:03:45;;;;;;;;;;;26.10;75.30;;;26.23;39.67;95051.38;10476707;28;2101;-80
2021/06/21 08:08:48;;;;;;;;;;;26.40;75.10;;;26.35;39.49;95052.97;10476099;28;2082;-79
2021/06/21 08:13:51;;;;;;;;;;;26.90;73.80;;;26.86;37.22;95044.31;10446105;28;2193;-80
2021/06/21 08:18:54;;;;;;;;;;;27.20;72.50;;;26.50;36.64;95049.06;10469147;28;2137;-78
2021/06/21 08:23:58;;;;;;;;;;;27.10;70.90;;;26.89;37.77;95043.53;10451014;28;2503;-79
2021/06/21 08:29:00;;;;;;;;;;;27.20;72.30;;;26.60;37.58;95047.50;10440523;28;2357;-78
2021/06/21 08:34:03;;;;;;;;;;;27.30;70.90;;;26.81;37.91;95035.66;10423632;28;2222;-79
2021/06/21 08:39:06;;;;;;;;;;;27.30;72.00;;;26.26;38.27;95049.81;10446982;28;2257;-78
2021/06/21 08:44:10;;;;;;;;;;;27.30;70.90;;;26.34;38.19;95052.19;10448224;28;2182;-78
2021/06/21 08:49:13;;;;;;;;;;;27.00;72.00;;;26.82;37.51;95043.53;10450666;28;2360;-79
2021/06/21 08:54:16;;;;;;;;;;;27.10;71.20;;;26.31;37.00;95050.19;10465977;28;2009;-80
2021/06/21 08:59:19;;;;;;;;;;;27.00;70.20;;;26.45;37.46;95041.19;10448839;28;2201;-78
2021/06/21 09:04:23;;;;;;;;;;;27.00;70.20;;;27.00;36.41;95039.97;10453231;28;2167;-80
2021/06/21 09:09:27;;;;;;;;;;;27.30;69.50;;;26.98;35.38;95031.31;10448355;28;2221;-79
2021/06/21 09:14:30;;;;;;;;;;;27.60;67.50;;;27.51;34.82;95042.22;10468665;28;2171;-80
2021/06/21 09:19:32;;;;;;;;;;;27.90;67.30;;;27.43;34.84;95032.38;10469069;28;2426;-80
2021/06/21 09:24:35;;;;;;;;;;;28.00;67.40;;;27.25;34.73;95032.44;10438741;28;2221;-79
2021/06/21 09:29:38;;;;;;;;;;;28.00;66.60;;;26.94;34.57;95026.56;10451697;28;2224;-78
2021/06/21 09:35:00;;;;;;;;;;;28.00;66.20;;;27.05;36.03;95025.78;10455164;28;2233;-79
2021/06/21 09:40:03;;;;;;;;;;;27.80;67.00;;;27.66;35.80;95023.59;10469016;28;2077;-79
2021/06/21 09:45:07;;;;;;;;;;;28.10;68.10;;;28.19;34.84;95020.56;10455477;28;2210;-82
2021/06/21 09:50:10;;;;;;;;;;;28.60;67.10;;;27.72;34.79;95017.28;10455536;28;2097;-82
2021/06/21 09:55:14;;;;;;;;;;;28.60;65.40;;;28.04;33.98;95018.28;10441254;28;2052;-80
2021/06/21 10:00:25;;;;;;;;;;;28.60;65.10;;;27.56;34.37;95027.22;10447257;28;2115;-81
2021/06/21 10:05:59;;;;;;;;;;;28.60;64.50;;;27.54;33.76;95015.78;10458571;28;1961;-81
2021/06/21 10:11:15;;;;;;;;;;;28.40;64.30;;;27.34;34.88;95019.00;10426624;23;2091;-82
2021/06/21 10:51:51;;;;;;;;;;;30.80;61.70;;;29.45;31.52;94998.84;10610799;23;2248;-80
2021/06/21 11:02:45;;;;;;;;;;;31.50;59.70;;;29.13;32.45;95001.22;10446523;28;2187;-82
2021/06/21 11:08:28;;;;;;;;;;;31.50;59.50;;;28.62;33.29;94994.56;10350037;28;2067;-82
2021/06/21 11:13:48;;;;;;;;;;;31.30;59.70;;;28.73;33.13;94995.28;10378867;28;2312;-81
2021/06/21 11:24:43;;;;;;;;;;;31.10;60.10;;;29.54;32.16;94993.66;10388910;28;2064;-81
2021/06/21 11:29:47;;;;;;;;;;;31.70;59.30;;;28.69;33.21;94994.50;10385108;28;2117;-83
2021/06/21 11:41:00;;;;;;;;;;;30.20;60.60;;;27.86;34.72;94986.03;10378935;28;1457;-82
2021/06/21 11:46:06;;;;;;;;;;;29.20;61.90;;;28.29;34.50;94975.47;10387713;28;1994;-81
2021/06/21 11:51:18;;;;;;;;;;;29.10;62.60;;;28.11;34.42;94971.28;10405243;28;1643;-78
2021/06/21 12:20:39;;;;;;;;;;;29.20;61.50;;;28.10;33.94;94948.38;10140215;29;1913;-81
2021/06/21 12:48:29;;;;;;;;;;;29.70;61.10;;;29.40;31.60;94919.06;10432240;28;1866;-83
2021/06/21 12:53:34;;;;;;;;;;;30.10;60.10;;;29.67;31.72;94910.00;10492281;28;2202;-78
2021/06/21 12:58:39;;;;;;;;;;;30.40;59.90;;;29.52;31.79;94906.63;10514139;28;2184;-79
2021/06/21 13:03:52;;;;;;;;;;;30.40;59.80;;;29.69;31.54;94902.84;10522657;28;1963;-82
2021/06/21 13:08:56;;;;;;;;;;;30.70;59.40;;;29.44;32.00;94902.38;10500373;28;2064;-79
2021/06/21 13:14:05;;;;;;;;;;;30.50;59.60;;;29.60;31.40;94902.59;10498115;28;2085;-80
2021/06/21 13:25:20;;;;;;;;;;;30.30;59.80;;;28.89;32.96;94900.69;10536558;28;2098;-81
2021/06/21 13:36:14;;;;;;;;;;;29.90;60.20;;;29.25;33.42;94896.28;10502262;28;2075;-82
2021/06/21 13:41:19;;;;;;;;;;;29.70;60.90;;;29.46;32.38;94897.22;10508198;28;2495;-81
2021/06/21 13:46:40;;;;;;;;;;;29.80;60.70;;;29.55;32.63;94895.53;10517637;28;2102;-79
2021/06/21 13:52:08;;;;;;;;;;;30.10;60.70;;;30.02;31.13;94890.06;10509525;28;2160;-81
2021/06/21 13:57:34;;;;;;;;;;;30.50;59.70;;;30.08;30.68;94877.28;10527463;28;2081;-84
2021/06/21 14:08:35;;;;;;;;;;;30.60;59.20;;;30.27;31.45;94869.47;10511446;28;1669;-84
2021/06/21 14:20:00;;;;;;;;;;;30.50;59.00;;;29.75;31.24;94867.94;10518701;28;1632;-80
2021/06/21 14:25:05;;;;;;;;;;;30.40;59.30;;;29.87;31.14;94872.09;10506381;28;2072;-80
2021/06/21 14:30:23;;;;;;;;;;;30.50;58.70;;;29.25;32.04;94873.38;10525570;28;2001;-80
2021/06/21 14:35:34;;;;;;;;;;;30.30;59.10;;;30.10;31.53;94863.84;10536978;28;1857;-80
2021/06/21 14:40:51;;;;;;;;;;;30.60;59.50;;;30.09;30.81;94861.44;10502016;28;2016;-80
2021/06/21 14:46:01;;;;;;;;;;;31.10;58.40;;;29.91;30.89;94844.34;10509663;28;2125;-82
2021/06/21 14:51:13;;;;;;;;;;;31.00;58.20;;;30.04;30.97;94843.31;10528540;28;1942;-80
2021/06/21 14:56:23;;;;;;;;;;;30.90;58.00;;;29.30;32.05;94834.94;10527018;28;2192;-80
2021/06/21 15:01:34;;;;;;;;;;;30.80;57.90;;;30.33;30.62;94824.22;10530138;28;2123;-80
2021/06/21 15:17:15;;;;;;;;;;;31.30;57.30;;;30.75;29.48;94812.78;10503903;28;2301;-82
2021/06/21 15:22:48;;;;;;;;;;;31.60;56.40;;;30.42;30.10;94820.91;10518261;28;2197;-83
2021/06/21 15:27:57;;;;;;;;;;;31.70;56.10;;;31.09;29.13;94818.75;10512197;28;2070;-81
2021/06/21 15:33:08;;;;;;;;;;;31.90;56.00;;;31.29;29.14;94817.97;10512734;28;2149;-80
2021/06/21 15:38:16;;;;;;;;;;;32.20;56.30;;;31.00;29.72;94810.25;10500328;28;2250;-81
2021/06/21 15:55:18;;;;;;;;;;;32.00;57.10;;;30.82;30.77;94795.97;10326586;28;2169;-83
2021/06/21 16:06:31;;;;;;;;;;;31.50;56.90;;;30.18;31.89;94802.75;10436566;28;2168;-84
2021/06/21 16:17:38;;;;;;;;;;;31.10;58.30;;;29.88;32.54;94785.00;10503804;28;2281;-81
2021/06/21 16:22:45;;;;;;;;;;;30.80;58.50;;;29.03;33.93;94798.97;10487845;28;2298;-83
2021/06/21 16:27:49;;;;;;;;;;;30.40;59.50;;;29.00;34.57;94785.94;10512814;28;2165;-84
2021/06/21 16:32:52;;;;;;;;;;;30.00;60.90;;;28.74;34.56;94781.91;10496307;28;2192;-81
2021/06/21 16:38:05;;;;;;;;;;;29.90;60.10;;;28.65;34.89;94786.41;10529068;28;2111;-82
2021/06/21 16:43:18;;;;;;;;;;;29.70;60.80;;;28.63;35.28;94792.34;10505828;28;2128;-83
2021/06/21 16:48:22;;;;;;;;;;;29.60;61.30;;;28.69;34.71;94779.63;10518774;28;2262;-81
2021/06/21 16:53:25;;;;;;;;;;;29.50;61.30;;;28.69;35.24;94787.13;10505799;28;2072;-83
2021/06/21 16:58:30;;;;;;;;;;;29.40;61.80;;;28.27;35.17;94791.94;10495761;28;2072;-81
2021/06/21 17:03:34;;;;;;;;;;;29.20;61.80;;;28.53;35.33;94790.50;10508472;28;2135;-86
2021/06/21 17:08:37;;;;;;;;;;;29.20;62.50;;;28.48;35.21;94786.19;10535632;28;2138;-85
2021/06/21 17:13:42;;;;;;;;;;;29.30;62.00;;;28.39;35.62;94793.41;10503309;28;2100;-86
2021/06/21 17:18:45;;;;;;;;;;;29.20;62.40;;;28.11;36.15;94794.47;10497823;28;1307;-86
2021/06/21 17:23:49;;;;;;;;;;;29.00;62.90;;;27.80;37.13;94793.56;10516355;28;2119;-85
2021/06/21 17:28:52;;;;;;;;;;;28.70;63.30;;;27.65;37.86;94790.13;10514229;28;1556;-84
2021/06/21 17:33:57;;;;;;;;;;;28.60;64.50;;;27.30;39.46;94786.47;10490311;28;2161;-82
2021/06/21 17:39:07;;;;;;;;;;;28.30;65.90;;;27.06;39.38;94781.91;10500033;28;2018;-82
2021/06/21 17:44:12;;;;;;;;;;;28.10;66.10;;;26.67;39.54;94788.38;10501549;28;2097;-83
2021/06/21 17:49:15;;;;;;;;;;;27.80;65.40;;;26.63;39.64;94788.38;10504859;28;2299;-84
2021/06/21 17:54:18;;;;;;;;;;;27.60;66.00;;;26.47;39.48;94795.56;10484627;28;2094;-82
2021/06/21 17:59:20;;;;;;;;;;;27.40;66.00;;;26.16;40.03;94775.94;10509299;28;2075;-78
2021/06/21 18:04:23;;;;;;;;;;;27.20;67.00;;;25.97;40.70;94787.41;10495095;28;2220;-79
2021/06/21 18:09:26;;;;;;;;;;;26.90;67.00;;;25.85;40.94;94788.59;10498011;28;2055;-77
2021/06/21 18:14:29;;;;;;;;;;;26.80;67.30;;;25.72;40.96;94793.69;10498237;28;1655;-76
2021/06/21 18:19:31;;;;;;;;;;;26.60;67.50;;;25.67;41.23;94802.34;10484452;28;1594;-79
2021/06/21 18:24:34;;;;;;;;;;;26.60;67.90;;;25.57;41.59;94801.16;10480178;28;2065;-78
2021/06/21 18:29:37;;;;;;;;;;;26.50;68.00;;;25.59;41.66;94798.03;10486107;28;1389;-78
2021/06/21 18:34:40;;;;;;;;;;;26.40;68.40;;;25.55;41.84;94786.22;10492571;28;1993;-78
2021/06/21 18:39:42;;;;;;;;;;;26.40;68.60;;;25.41;42.42;94786.22;10495503;28;2014;-78
2021/06/21 18:44:45;;;;;;;;;;;26.30;69.10;;;25.19;42.93;94797.19;10477434;28;1976;-78
2021/06/21 18:49:48;;;;;;;;;;;26.20;69.90;;;25.02;43.15;94792.44;10493503;28;1581;-78
2021/06/21 18:54:51;;;;;;;;;;;26.00;70.30;;;24.94;43.25;94774.34;10491006;28;1954;-78
2021/06/21 18:59:55;;;;;;;;;;;25.80;70.00;;;24.86;43.33;94767.25;10485962;28;1577;-79
2021/06/21 19:04:58;;;;;;;;;;;25.80;70.20;;;24.79;43.29;94773.53;10500589;28;1894;-77
2021/06/21 19:10:00;;;;;;;;;;;25.60;70.40;;;24.72;43.71;94768.03;10499196;28;1832;-79
2021/06/21 19:15:03;;;;;;;;;;;25.60;70.80;;;24.52;44.34;94757.38;10498294;28;1342;-78
2021/06/21 19:20:06;;;;;;;;;;;25.40;71.40;;;24.49;44.83;94769.16;10484348;28;1739;-77
2021/06/21 19:25:09;;;;;;;;;;;25.40;72.00;;;24.35;45.88;94776.53;10499369;28;1910;-78
2021/06/21 19:30:12;;;;;;;;;;;25.30;73.10;;;24.05;48.94;94791.28;10493622;28;1475;-78
2021/06/21 19:35:16;;;;;;;;;;;25.10;75.90;;;23.58;50.46;94794.81;10506282;28;1592;-79
2021/06/21 19:40:20;;;;;;;;;;;24.70;77.40;;;23.33;53.04;94802.84;10507493;28;1304;-79
2021/06/21 19:45:23;;;;;;;;;;;24.40;80.10;;;23.25;52.50;94793.78;10486433;28;1927;-79
2021/06/21 19:50:31;;;;;;;;;;;24.20;80.50;;;22.96;55.55;94776.28;10500380;28;1515;-78
2021/06/21 19:55:33;;;;;;;;;;;24.00;83.00;;;22.66;57.21;94790.03;10508736;28;1639;-76
2021/06/21 20:00:36;;;;;;;;;;;23.80;84.60;;;21.98;63.47;94794.63;10496791;28;1450;-78
2021/06/21 20:05:39;;;;;;;;;;;23.30;89.60;;;21.51;65.20;94827.94;10497220;28;1901;-78
2021/06/21 20:10:41;;;;;;;;;;;22.80;92.00;;;20.94;69.88;94846.06;10486119;28;1505;-77
2021/06/21 20:15:44;;;;;;;;;;;22.30;95.60;;;20.39;80.21;94816.09;10503312;28;2045;-78
2021/06/21 20:20:48;;;;;;;;;;;21.60;99.90;;;20.38;77.61;94781.75;10497246;28;1557;-77
2021/06/21 20:25:51;;;;;;;;;;;21.10;99.90;;;20.05;79.90;94751.47;10503216;28;1910;-77
2021/06/21 20:30:54;;;;;;;;;;;20.80;99.90;;;19.69;85.17;94784.19;10504768;28;1810;-77
2021/06/21 20:35:58;;;;;;;;;;;20.60;99.90;;;19.13;95.08;94838.88;10537308;28;1545;-82
2021/06/21 20:41:01;;;;;;;;;;;20.20;99.90;;;19.09;98.37;94842.69;10504693;28;1972;-80
2021/06/21 20:46:04;;;;;;;;;;;19.90;99.90;;;18.98;98.00;94817.09;10521020;28;1902;-81
2021/06/21 20:51:07;;;;;;;;;;;19.80;99.90;;;18.75;96.68;94822.31;10516755;28;1479;-81
2021/06/21 20:56:09;;;;;;;;;;;19.60;99.90;;;18.74;94.10;94888.81;10516584;28;1369;-80
2021/06/21 21:01:12;;;;;;;;;;;19.50;99.90;;;18.71;95.42;94903.91;10509887;28;2055;-81
2021/06/21 21:06:15;;;;;;;;;;;19.40;99.90;;;18.45;99.92;94956.00;10479177;28;2058;-81
2021/06/21 21:11:18;;;;;;;;;;;19.30;99.90;;;18.43;100.00;95074.47;10495576;28;1824;-81
2021/06/21 21:16:20;;;;;;;;;;;19.20;99.90;;;17.34;99.50;95116.56;10504023;28;1886;-81
2021/06/21 21:21:23;;;;;;;;;;;18.70;99.90;;;16.41;100.00;95142.78;10499036;28;2146;-79
2021/06/21 21:26:26;;;;;;;;;;;17.00;99.90;;;15.71;100.00;95157.66;10495528;28;2017;-81
2021/06/21 21:31:29;;;;;;;;;;;16.70;99.90;;;15.68;100.00;95132.00;10517821;28;1958;-80
2021/06/21 21:36:32;;;;;;;;;;;16.60;99.90;;;15.72;100.00;95119.44;10486402;28;2175;-80
2021/06/21 21:41:35;;;;;;;;;;;16.50;99.90;;;15.53;100.00;95119.75;10513924;28;1813;-81
2021/06/21 21:46:38;;;;;;;;;;;16.50;99.90;;;15.53;100.00;95081.03;10516831;28;2080;-81
2021/06/21 21:51:40;;;;;;;;;;;16.20;99.90;;;15.50;100.00;95060.78;10493020;28;2042;-81
2021/06/21 21:56:43;;;;;;;;;;;16.20;99.90;;;15.61;100.00;95123.53;10484714;28;2053;-81
2021/06/21 22:01:47;;;;;;;;;;;16.30;99.90;;;15.61;100.00;95116.22;10511235;28;2160;-81
2021/06/21 22:06:50;;;;;;;;;;;16.40;99.90;;;15.81;100.00;95138.38;10497830;28;2124;-82
2021/06/21 22:11:53;;;;;;;;;;;16.50;99.90;;;15.89;100.00;95099.59;10521789;28;1859;-82
2021/06/21 22:16:55;;;;;;;;;;;16.60;99.90;;;15.89;100.00;95122.06;10511549;28;1931;-83
2021/06/21 22:21:58;;;;;;;;;;;16.70;99.90;;;15.91;100.00;95129.91;10532815;28;2051;-82
2021/06/21 22:27:02;;;;;;;;;;;16.70;99.90;;;15.97;100.00;95144.88;10542956;28;1981;-82
2021/06/21 22:32:05;;;;;;;;;;;16.70;99.90;;;15.87;100.00;95151.41;10539260;28;1750;-82
2021/06/21 22:37:08;;;;;;;;;;;16.70;99.90;;;15.95;100.00;95163.34;10535607;28;1884;-81
2021/06/21 22:42:11;;;;;;;;;;;16.70;99.90;;;15.93;100.00;95181.88;10533811;28;2110;-82
2021/06/21 22:47:13;;;;;;;;;;;16.70;99.90;;;15.93;100.00;95198.94;10535385;28;1957;-81
2021/06/21 22:52:16;;;;;;;;;;;16.70;99.90;;;15.96;100.00;95227.28;10529794;28;1913;-80
2021/06/21 22:57:19;;;;;;;;;;;16.80;99.90;;;16.04;100.00;95242.78;10533537;28;2049;-82
2021/06/21 23:02:22;;;;;;;;;;;16.80;99.90;;;16.15;100.00;95265.69;10552070;28;2071;-82
2021/06/21 23:07:25;;;;;;;;;;;16.90;99.90;;;16.25;100.00;95255.66;10546874;28;2082;-80
2021/06/21 23:12:27;;;;;;;;;;;17.00;99.90;;;16.25;100.00;95248.31;10540369;28;2180;-81
2021/06/21 23:17:30;;;;;;;;;;;17.10;99.90;;;16.25;100.00;95250.22;10534759;28;2028;-82
2021/06/21 23:22:35;;;;;;;;;;;17.10;99.90;;;16.26;100.00;95262.66;10532743;28;2326;-81
2021/06/21 23:27:38;;;;;;;;;;;17.20;99.90;;;16.34;100.00;95253.72;10513397;28;2106;-82
2021/06/21 23:32:40;;;;;;;;;;;17.20;99.90;;;16.42;100.00;95239.34;10528994;28;2298;-81
2021/06/21 23:37:43;;;;;;;;;;;17.30;99.90;;;16.45;100.00;95231.34;10519944;28;2236;-82
2021/06/21 23:42:46;;;;;;;;;;;17.30;99.90;;;16.58;100.00;95231.47;10534490;28;2041;-80
2021/06/21 23:47:49;;;;;;;;;;;17.40;99.90;;;16.69;100.00;95233.50;10529805;28;2137;-80
2021/06/21 23:52:52;;;;;;;;;;;17.50;99.90;;;16.77;100.00;95231.91;10510135;28;2111;-81
2021/06/21 23:57:55;;;;;;;;;;;17.60;99.90;;;16.82;100.00;95217.38;10522970;28;2139;-82
